sensor_id;sensor_type;location;lat;lon;timestamp;P1;durP1;ratioP1;P2;durP2;ratioP2
23115;SDS011;11727;52.134;5.052;2023-01-04T00:00:59;1.88;;;1.13;;
23115;SDS011;11727;52.134;5.052;2023-01-04T00:03:29;2.10;;;0.77;;
23115;SDS011;11727;52.134;5.052;2023-01-04T00:06:00;4.63;;;0.75;;
23115;SDS011;11727;52.134;5.052;2023-01-04T00:08:27;3.83;;;1.00;;
23115;SDS011;11727;52.134;5.052;2023-01-04T00:10:58;5.40;;;0.80;;
23115;SDS011;11727;52.134;5.052;2023-01-04T00:13:29;2.17;;;1.00;;
23115;SDS011;11727;52.134;5.052;2023-01-04T00:15:55;2.63;;;1.15;;
23115;SDS011;11727;52.134;5.052;2023-01-04T00:18:21;3.55;;;1.08;;
23115;SDS011;11727;52.134;5.052;2023-01-04T00:20:47;2.08;;;0.90;;
23115;SDS011;11727;52.134;5.052;2023-01-04T00:23:13;4.40;;;1.10;;
23115;SDS011;11727;52.134;5.052;2023-01-04T00:25:39;5.97;;;1.10;;
23115;SDS011;11727;52.134;5.052;2023-01-04T00:28:04;4.80;;;0.70;;
23115;SDS011;11727;52.134;5.052;2023-01-04T00:30:33;2.13;;;1.00;;
23115;SDS011;11727;52.134;5.052;2023-01-04T00:32:59;5.20;;;1.00;;
23115;SDS011;11727;52.134;5.052;2023-01-04T00:35:24;6.85;;;1.40;;
23115;SDS011;11727;52.134;5.052;2023-01-04T00:37:50;2.92;;;1.20;;
23115;SDS011;11727;52.134;5.052;2023-01-04T00:40:16;4.60;;;1.02;;
23115;SDS011;11727;52.134;5.052;2023-01-04T00:42:41;7.20;;;2.65;;
23115;SDS011;11727;52.134;5.052;2023-01-04T00:45:07;13.02;;;4.20;;
23115;SDS011;11727;52.134;5.052;2023-01-04T00:47:33;11.65;;;4.07;;
23115;SDS011;11727;52.134;5.052;2023-01-04T00:49:58;21.60;;;6.90;;
23115;SDS011;11727;52.134;5.052;2023-01-04T00:52:24;13.00;;;5.93;;
23115;SDS011;11727;52.134;5.052;2023-01-04T00:54:49;9.20;;;5.32;;
23115;SDS011;11727;52.134;5.052;2023-01-04T00:57:15;10.73;;;5.90;;
23115;SDS011;11727;52.134;5.052;2023-01-04T00:59:41;10.20;;;5.03;;
23115;SDS011;11727;52.134;5.052;2023-01-04T01:02:06;12.77;;;5.57;;
23115;SDS011;11727;52.134;5.052;2023-01-04T01:04:32;8.98;;;4.60;;
23115;SDS011;11727;52.134;5.052;2023-01-04T01:06:57;17.77;;;6.00;;
23115;SDS011;11727;52.134;5.052;2023-01-04T01:09:23;6.80;;;3.70;;
23115;SDS011;11727;52.134;5.052;2023-01-04T01:11:49;8.25;;;2.70;;
23115;SDS011;11727;52.134;5.052;2023-01-04T01:14:17;4.25;;;2.05;;
23115;SDS011;11727;52.134;5.052;2023-01-04T01:16:44;3.78;;;1.63;;
23115;SDS011;11727;52.134;5.052;2023-01-04T01:19:10;5.00;;;1.23;;
23115;SDS011;11727;52.134;5.052;2023-01-04T01:21:36;2.28;;;1.40;;
23115;SDS011;11727;52.134;5.052;2023-01-04T01:24:02;3.08;;;1.38;;
23115;SDS011;11727;52.134;5.052;2023-01-04T01:26:28;1.92;;;1.30;;
23115;SDS011;11727;52.134;5.052;2023-01-04T01:28:54;5.95;;;1.40;;
23115;SDS011;11727;52.134;5.052;2023-01-04T01:31:21;2.33;;;1.40;;
23115;SDS011;11727;52.134;5.052;2023-01-04T01:33:48;3.60;;;1.80;;
23115;SDS011;11727;52.134;5.052;2023-01-04T01:36:16;2.25;;;1.45;;
23115;SDS011;11727;52.134;5.052;2023-01-04T01:38:43;2.33;;;1.23;;
23115;SDS011;11727;52.134;5.052;2023-01-04T01:41:14;2.67;;;1.60;;
23115;SDS011;11727;52.134;5.052;2023-01-04T01:43:49;1.83;;;1.40;;
23115;SDS011;11727;52.134;5.052;2023-01-04T01:46:31;3.10;;;1.70;;
23115;SDS011;11727;52.134;5.052;2023-01-04T01:51:53;2.70;;;1.70;;
23115;SDS011;11727;52.134;5.052;2023-01-04T01:54:55;5.07;;;2.00;;
23115;SDS011;11727;52.134;5.052;2023-01-04T01:57:18;3.35;;;1.98;;
23115;SDS011;11727;52.134;5.052;2023-01-04T01:59:48;9.18;;;1.95;;
23115;SDS011;11727;52.134;5.052;2023-01-04T02:02:17;3.90;;;2.25;;
23115;SDS011;11727;52.134;5.052;2023-01-04T02:04:43;4.18;;;2.08;;
23115;SDS011;11727;52.134;5.052;2023-01-04T02:07:12;3.55;;;1.85;;
23115;SDS011;11727;52.134;5.052;2023-01-04T02:09:41;3.67;;;2.40;;
23115;SDS011;11727;52.134;5.052;2023-01-04T02:12:11;3.53;;;2.17;;
23115;SDS011;11727;52.134;5.052;2023-01-04T02:14:38;3.50;;;2.25;;
23115;SDS011;11727;52.134;5.052;2023-01-04T02:17:19;2.42;;;1.77;;
23115;SDS011;11727;52.134;5.052;2023-01-04T02:19:54;5.05;;;2.20;;
23115;SDS011;11727;52.134;5.052;2023-01-04T02:33:33;3.17;;;2.05;;
23115;SDS011;11727;52.134;5.052;2023-01-04T02:36:32;4.00;;;2.15;;
23115;SDS011;11727;52.134;5.052;2023-01-04T02:39:17;2.92;;;1.95;;
23115;SDS011;11727;52.134;5.052;2023-01-04T02:44:52;2.28;;;1.75;;
23115;SDS011;11727;52.134;5.052;2023-01-04T02:47:29;2.88;;;2.00;;
23115;SDS011;11727;52.134;5.052;2023-01-04T02:50:22;5.10;;;2.25;;
23115;SDS011;11727;52.134;5.052;2023-01-04T03:01:57;3.75;;;1.92;;
23115;SDS011;11727;52.134;5.052;2023-01-04T03:13:25;2.88;;;1.73;;
23115;SDS011;11727;52.134;5.052;2023-01-04T03:15:55;3.38;;;2.10;;
23115;SDS011;11727;52.134;5.052;2023-01-04T03:18:29;3.03;;;2.28;;
23115;SDS011;11727;52.134;5.052;2023-01-04T03:20:59;5.57;;;2.45;;
23115;SDS011;11727;52.134;5.052;2023-01-04T03:23:28;5.10;;;2.78;;
23115;SDS011;11727;52.134;5.052;2023-01-04T03:26:18;4.13;;;2.38;;
23115;SDS011;11727;52.134;5.052;2023-01-04T03:29:12;3.60;;;2.50;;
23115;SDS011;11727;52.134;5.052;2023-01-04T03:32:03;3.35;;;2.38;;
23115;SDS011;11727;52.134;5.052;2023-01-04T03:34:53;6.32;;;2.40;;
23115;SDS011;11727;52.134;5.052;2023-01-04T03:37:44;2.70;;;2.00;;
23115;SDS011;11727;52.134;5.052;2023-01-04T03:40:36;2.70;;;2.00;;
23115;SDS011;11727;52.134;5.052;2023-01-04T03:43:33;3.83;;;2.35;;
23115;SDS011;11727;52.134;5.052;2023-01-04T03:46:32;4.07;;;2.45;;
23115;SDS011;11727;52.134;5.052;2023-01-04T03:49:56;3.20;;;2.22;;
23115;SDS011;11727;52.134;5.052;2023-01-04T03:52:23;4.18;;;2.30;;
23115;SDS011;11727;52.134;5.052;2023-01-04T03:54:52;4.05;;;1.92;;
23115;SDS011;11727;52.134;5.052;2023-01-04T03:57:20;3.38;;;2.20;;
23115;SDS011;11727;52.134;5.052;2023-01-04T03:59:48;3.38;;;2.35;;
23115;SDS011;11727;52.134;5.052;2023-01-04T04:02:21;2.47;;;1.38;;
23115;SDS011;11727;52.134;5.052;2023-01-04T04:04:48;2.72;;;1.67;;
23115;SDS011;11727;52.134;5.052;2023-01-04T04:07:32;3.08;;;1.50;;
23115;SDS011;11727;52.134;5.052;2023-01-04T04:10:16;2.47;;;1.63;;
23115;SDS011;11727;52.134;5.052;2023-01-04T04:12:42;4.97;;;2.15;;
23115;SDS011;11727;52.134;5.052;2023-01-04T04:15:08;3.70;;;1.75;;
23115;SDS011;11727;52.134;5.052;2023-01-04T04:17:34;4.82;;;1.48;;
23115;SDS011;11727;52.134;5.052;2023-01-04T04:19:59;2.85;;;1.40;;
23115;SDS011;11727;52.134;5.052;2023-01-04T04:22:25;2.97;;;1.70;;
23115;SDS011;11727;52.134;5.052;2023-01-04T04:24:51;2.97;;;1.80;;
23115;SDS011;11727;52.134;5.052;2023-01-04T04:27:16;5.45;;;1.75;;
23115;SDS011;11727;52.134;5.052;2023-01-04T04:29:42;2.58;;;1.60;;
23115;SDS011;11727;52.134;5.052;2023-01-04T04:32:07;8.07;;;1.50;;
23115;SDS011;11727;52.134;5.052;2023-01-04T04:34:33;5.03;;;1.55;;
23115;SDS011;11727;52.134;5.052;2023-01-04T04:36:58;3.83;;;2.25;;
23115;SDS011;11727;52.134;5.052;2023-01-04T04:39:24;3.40;;;1.40;;
23115;SDS011;11727;52.134;5.052;2023-01-04T04:41:49;2.22;;;1.35;;
23115;SDS011;11727;52.134;5.052;2023-01-04T04:44:16;2.95;;;1.27;;
23115;SDS011;11727;52.134;5.052;2023-01-04T04:49:09;3.15;;;1.52;;
23115;SDS011;11727;52.134;5.052;2023-01-04T04:51:35;4.38;;;1.88;;
23115;SDS011;11727;52.134;5.052;2023-01-04T04:54:02;2.65;;;1.67;;
23115;SDS011;11727;52.134;5.052;2023-01-04T04:56:28;3.58;;;1.58;;
23115;SDS011;11727;52.134;5.052;2023-01-04T04:58:53;4.55;;;1.55;;
23115;SDS011;11727;52.134;5.052;2023-01-04T05:01:19;8.57;;;1.85;;
23115;SDS011;11727;52.134;5.052;2023-01-04T05:03:45;3.03;;;1.90;;
23115;SDS011;11727;52.134;5.052;2023-01-04T05:06:11;4.78;;;1.85;;
23115;SDS011;11727;52.134;5.052;2023-01-04T05:08:37;3.42;;;1.45;;
23115;SDS011;11727;52.134;5.052;2023-01-04T05:11:03;2.15;;;1.70;;
23115;SDS011;11727;52.134;5.052;2023-01-04T05:13:34;5.78;;;1.88;;
23115;SDS011;11727;52.134;5.052;2023-01-04T05:16:00;6.30;;;1.88;;
23115;SDS011;11727;52.134;5.052;2023-01-04T05:18:27;2.03;;;1.40;;
23115;SDS011;11727;52.134;5.052;2023-01-04T05:20:52;4.03;;;2.08;;
23115;SDS011;11727;52.134;5.052;2023-01-04T05:23:19;2.13;;;1.40;;
23115;SDS011;11727;52.134;5.052;2023-01-04T05:25:47;2.50;;;1.40;;
23115;SDS011;11727;52.134;5.052;2023-01-04T05:28:20;2.55;;;1.70;;
23115;SDS011;11727;52.134;5.052;2023-01-04T05:30:47;4.18;;;1.73;;
23115;SDS011;11727;52.134;5.052;2023-01-04T05:33:22;2.65;;;1.55;;
23115;SDS011;11727;52.134;5.052;2023-01-04T05:35:50;3.08;;;1.80;;
23115;SDS011;11727;52.134;5.052;2023-01-04T05:38:16;2.25;;;1.67;;
23115;SDS011;11727;52.134;5.052;2023-01-04T05:40:43;4.05;;;2.33;;
23115;SDS011;11727;52.134;5.052;2023-01-04T05:43:08;4.50;;;2.10;;
23115;SDS011;11727;52.134;5.052;2023-01-04T05:45:34;3.83;;;2.00;;
23115;SDS011;11727;52.134;5.052;2023-01-04T05:48:00;4.53;;;3.00;;
23115;SDS011;11727;52.134;5.052;2023-01-04T05:50:26;4.25;;;2.60;;
23115;SDS011;11727;52.134;5.052;2023-01-04T05:52:52;3.80;;;2.33;;
23115;SDS011;11727;52.134;5.052;2023-01-04T05:55:17;2.65;;;1.65;;
23115;SDS011;11727;52.134;5.052;2023-01-04T05:57:43;6.50;;;2.60;;
23115;SDS011;11727;52.134;5.052;2023-01-04T06:00:09;6.90;;;2.30;;
23115;SDS011;11727;52.134;5.052;2023-01-04T06:02:36;2.38;;;1.88;;
23115;SDS011;11727;52.134;5.052;2023-01-04T06:05:02;4.85;;;2.40;;
23115;SDS011;11727;52.134;5.052;2023-01-04T06:07:28;4.13;;;2.10;;
23115;SDS011;11727;52.134;5.052;2023-01-04T06:09:53;3.28;;;2.30;;
23115;SDS011;11727;52.134;5.052;2023-01-04T06:12:19;2.40;;;1.73;;
23115;SDS011;11727;52.134;5.052;2023-01-04T06:14:45;2.63;;;1.70;;
23115;SDS011;11727;52.134;5.052;2023-01-04T06:17:11;2.45;;;1.60;;
23115;SDS011;11727;52.134;5.052;2023-01-04T06:19:36;2.42;;;1.60;;
23115;SDS011;11727;52.134;5.052;2023-01-04T06:22:02;3.08;;;1.90;;
23115;SDS011;11727;52.134;5.052;2023-01-04T06:24:28;2.33;;;1.63;;
23115;SDS011;11727;52.134;5.052;2023-01-04T06:26:54;3.00;;;1.80;;
23115;SDS011;11727;52.134;5.052;2023-01-04T06:29:19;3.97;;;2.22;;
23115;SDS011;11727;52.134;5.052;2023-01-04T06:31:45;2.60;;;1.77;;
23115;SDS011;11727;52.134;5.052;2023-01-04T06:34:11;3.85;;;1.95;;
23115;SDS011;11727;52.134;5.052;2023-01-04T06:36:38;2.07;;;1.40;;
23115;SDS011;11727;52.134;5.052;2023-01-04T06:39:03;3.13;;;1.50;;
23115;SDS011;11727;52.134;5.052;2023-01-04T06:43:56;2.47;;;1.48;;
23115;SDS011;11727;52.134;5.052;2023-01-04T06:46:22;2.20;;;1.45;;
23115;SDS011;11727;52.134;5.052;2023-01-04T06:48:48;4.22;;;1.48;;
23115;SDS011;11727;52.134;5.052;2023-01-04T06:51:13;2.60;;;1.83;;
23115;SDS011;11727;52.134;5.052;2023-01-04T06:53:39;2.78;;;1.77;;
23115;SDS011;11727;52.134;5.052;2023-01-04T06:56:08;3.38;;;2.10;;
23115;SDS011;11727;52.134;5.052;2023-01-04T06:58:34;3.10;;;1.40;;
23115;SDS011;11727;52.134;5.052;2023-01-04T07:01:00;5.53;;;1.95;;
23115;SDS011;11727;52.134;5.052;2023-01-04T07:03:28;4.28;;;1.45;;
23115;SDS011;11727;52.134;5.052;2023-01-04T07:05:54;3.47;;;1.73;;
23115;SDS011;11727;52.134;5.052;2023-01-04T07:08:19;3.20;;;1.73;;
23115;SDS011;11727;52.134;5.052;2023-01-04T07:10:45;3.30;;;1.55;;
23115;SDS011;11727;52.134;5.052;2023-01-04T07:13:11;3.05;;;1.50;;
23115;SDS011;11727;52.134;5.052;2023-01-04T07:15:36;3.35;;;1.15;;
23115;SDS011;11727;52.134;5.052;2023-01-04T07:18:02;7.65;;;2.42;;
23115;SDS011;11727;52.134;5.052;2023-01-04T07:20:28;2.20;;;1.15;;
23115;SDS011;11727;52.134;5.052;2023-01-04T07:22:57;3.00;;;1.27;;
23115;SDS011;11727;52.134;5.052;2023-01-04T07:25:22;8.23;;;1.48;;
23115;SDS011;11727;52.134;5.052;2023-01-04T07:27:51;1.95;;;1.33;;
23115;SDS011;11727;52.134;5.052;2023-01-04T07:30:18;3.40;;;1.52;;
23115;SDS011;11727;52.134;5.052;2023-01-04T07:32:45;2.50;;;1.25;;
23115;SDS011;11727;52.134;5.052;2023-01-04T07:35:10;2.33;;;0.93;;
23115;SDS011;11727;52.134;5.052;2023-01-04T07:37:36;5.65;;;2.05;;
23115;SDS011;11727;52.134;5.052;2023-01-04T07:40:02;2.88;;;1.00;;
23115;SDS011;11727;52.134;5.052;2023-01-04T07:42:28;1.73;;;1.15;;
23115;SDS011;11727;52.134;5.052;2023-01-04T07:44:53;6.13;;;1.13;;
23115;SDS011;11727;52.134;5.052;2023-01-04T07:47:19;6.40;;;1.70;;
23115;SDS011;11727;52.134;5.052;2023-01-04T07:49:44;4.10;;;1.60;;
23115;SDS011;11727;52.134;5.052;2023-01-04T07:54:38;7.22;;;1.48;;
23115;SDS011;11727;52.134;5.052;2023-01-04T07:57:04;4.43;;;1.88;;
23115;SDS011;11727;52.134;5.052;2023-01-04T07:59:29;4.22;;;1.27;;
23115;SDS011;11727;52.134;5.052;2023-01-04T08:01:55;4.90;;;1.10;;
23115;SDS011;11727;52.134;5.052;2023-01-04T08:04:21;5.55;;;0.93;;
23115;SDS011;11727;52.134;5.052;2023-01-04T08:06:48;3.03;;;1.50;;
23115;SDS011;11727;52.134;5.052;2023-01-04T08:09:13;3.35;;;1.08;;
23115;SDS011;11727;52.134;5.052;2023-01-04T08:11:39;3.75;;;1.10;;
23115;SDS011;11727;52.134;5.052;2023-01-04T08:14:05;4.53;;;0.93;;
23115;SDS011;11727;52.134;5.052;2023-01-04T08:16:32;3.70;;;0.73;;
23115;SDS011;11727;52.134;5.052;2023-01-04T08:19:03;2.95;;;1.10;;
23115;SDS011;11727;52.134;5.052;2023-01-04T08:21:32;1.25;;;0.77;;
23115;SDS011;11727;52.134;5.052;2023-01-04T08:23:59;4.80;;;1.10;;
23115;SDS011;11727;52.134;5.052;2023-01-04T08:26:26;2.72;;;0.75;;
23115;SDS011;11727;52.134;5.052;2023-01-04T08:28:52;2.83;;;0.98;;
23115;SDS011;11727;52.134;5.052;2023-01-04T08:31:18;1.67;;;0.80;;
23115;SDS011;11727;52.134;5.052;2023-01-04T08:33:46;5.93;;;1.00;;
23115;SDS011;11727;52.134;5.052;2023-01-04T08:36:17;2.20;;;0.82;;
23115;SDS011;11727;52.134;5.052;2023-01-04T08:38:45;1.83;;;0.60;;
23115;SDS011;11727;52.134;5.052;2023-01-04T08:41:11;2.17;;;0.90;;
23115;SDS011;11727;52.134;5.052;2023-01-04T08:43:37;3.05;;;0.85;;
23115;SDS011;11727;52.134;5.052;2023-01-04T08:46:03;0.70;;;0.50;;
23115;SDS011;11727;52.134;5.052;2023-01-04T08:48:30;4.43;;;0.80;;
23115;SDS011;11727;52.134;5.052;2023-01-04T08:51:06;1.70;;;0.70;;
23115;SDS011;11727;52.134;5.052;2023-01-04T08:53:34;3.90;;;0.60;;
23115;SDS011;11727;52.134;5.052;2023-01-04T08:56:00;1.63;;;0.70;;
23115;SDS011;11727;52.134;5.052;2023-01-04T08:58:27;4.25;;;0.85;;
23115;SDS011;11727;52.134;5.052;2023-01-04T09:00:58;2.08;;;0.77;;
23115;SDS011;11727;52.134;5.052;2023-01-04T09:03:24;2.88;;;0.95;;
23115;SDS011;11727;52.134;5.052;2023-01-04T09:05:50;1.35;;;0.55;;
23115;SDS011;11727;52.134;5.052;2023-01-04T09:08:15;1.02;;;0.50;;
23115;SDS011;11727;52.134;5.052;2023-01-04T09:10:41;1.30;;;0.63;;
23115;SDS011;11727;52.134;5.052;2023-01-04T09:13:07;0.70;;;0.45;;
23115;SDS011;11727;52.134;5.052;2023-01-04T09:15:32;3.30;;;0.80;;
23115;SDS011;11727;52.134;5.052;2023-01-04T09:17:58;1.17;;;0.70;;
23115;SDS011;11727;52.134;5.052;2023-01-04T09:20:24;3.00;;;0.65;;
23115;SDS011;11727;52.134;5.052;2023-01-04T09:22:50;1.02;;;0.93;;
23115;SDS011;11727;52.134;5.052;2023-01-04T09:25:15;3.05;;;0.77;;
23115;SDS011;11727;52.134;5.052;2023-01-04T09:27:41;2.60;;;0.60;;
23115;SDS011;11727;52.134;5.052;2023-01-04T09:30:08;1.73;;;0.75;;
23115;SDS011;11727;52.134;5.052;2023-01-04T09:32:34;2.78;;;1.08;;
23115;SDS011;11727;52.134;5.052;2023-01-04T09:34:59;3.70;;;0.93;;
23115;SDS011;11727;52.134;5.052;2023-01-04T09:37:25;1.17;;;0.47;;
23115;SDS011;11727;52.134;5.052;2023-01-04T09:39:50;2.08;;;0.70;;
23115;SDS011;11727;52.134;5.052;2023-01-04T09:42:18;5.80;;;0.85;;
23115;SDS011;11727;52.134;5.052;2023-01-04T09:44:52;1.35;;;0.65;;
23115;SDS011;11727;52.134;5.052;2023-01-04T09:47:31;1.88;;;0.77;;
23115;SDS011;11727;52.134;5.052;2023-01-04T09:50:09;2.20;;;0.70;;
23115;SDS011;11727;52.134;5.052;2023-01-04T09:52:49;2.97;;;1.20;;
23115;SDS011;11727;52.134;5.052;2023-01-04T09:55:17;6.07;;;1.60;;
23115;SDS011;11727;52.134;5.052;2023-01-04T09:57:48;2.92;;;0.77;;
23115;SDS011;11727;52.134;5.052;2023-01-04T10:02:59;3.97;;;0.95;;
23115;SDS011;11727;52.134;5.052;2023-01-04T10:05:36;3.65;;;0.80;;
23115;SDS011;11727;52.134;5.052;2023-01-04T10:08:02;3.55;;;0.75;;
23115;SDS011;11727;52.134;5.052;2023-01-04T10:11:16;3.63;;;0.80;;
23115;SDS011;11727;52.134;5.052;2023-01-04T10:16:12;4.65;;;0.90;;
23115;SDS011;11727;52.134;5.052;2023-01-04T10:21:52;1.98;;;0.70;;
23115;SDS011;11727;52.134;5.052;2023-01-04T10:24:30;2.60;;;0.50;;
23115;SDS011;11727;52.134;5.052;2023-01-04T10:26:59;3.30;;;1.13;;
23115;SDS011;11727;52.134;5.052;2023-01-04T10:34:57;6.45;;;0.95;;
23115;SDS011;11727;52.134;5.052;2023-01-04T10:37:24;6.75;;;1.00;;
23115;SDS011;11727;52.134;5.052;2023-01-04T10:39:57;2.33;;;0.73;;
23115;SDS011;11727;52.134;5.052;2023-01-04T10:45:14;6.05;;;0.73;;
23115;SDS011;11727;52.134;5.052;2023-01-04T10:48:15;1.98;;;0.55;;
23115;SDS011;11727;52.134;5.052;2023-01-04T10:50:57;1.40;;;0.60;;
23115;SDS011;11727;52.134;5.052;2023-01-04T10:56:27;2.88;;;1.00;;
23115;SDS011;11727;52.134;5.052;2023-01-04T10:59:05;2.53;;;0.90;;
23115;SDS011;11727;52.134;5.052;2023-01-04T11:01:57;5.07;;;0.70;;
23115;SDS011;11727;52.134;5.052;2023-01-04T11:04:51;5.68;;;0.63;;
23115;SDS011;11727;52.134;5.052;2023-01-04T11:07:37;1.10;;;0.60;;
23115;SDS011;11727;52.134;5.052;2023-01-04T11:10:05;3.00;;;0.90;;
23115;SDS011;11727;52.134;5.052;2023-01-04T11:12:37;4.47;;;0.65;;
23115;SDS011;11727;52.134;5.052;2023-01-04T11:15:03;3.83;;;0.95;;
23115;SDS011;11727;52.134;5.052;2023-01-04T11:17:29;4.07;;;1.02;;
23115;SDS011;11727;52.134;5.052;2023-01-04T11:19:56;3.47;;;0.90;;
23115;SDS011;11727;52.134;5.052;2023-01-04T11:25:12;2.05;;;0.90;;
23115;SDS011;11727;52.134;5.052;2023-01-04T11:27:46;4.07;;;1.00;;
23115;SDS011;11727;52.134;5.052;2023-01-04T11:30:19;7.55;;;1.02;;
23115;SDS011;11727;52.134;5.052;2023-01-04T11:38:09;8.65;;;0.50;;
23115;SDS011;11727;52.134;5.052;2023-01-04T11:40:35;2.20;;;1.10;;
23115;SDS011;11727;52.134;5.052;2023-01-04T11:43:11;2.85;;;0.52;;
23115;SDS011;11727;52.134;5.052;2023-01-04T11:45:53;1.33;;;0.50;;
23115;SDS011;11727;52.134;5.052;2023-01-04T11:48:34;8.07;;;0.55;;
23115;SDS011;11727;52.134;5.052;2023-01-04T11:54:16;3.20;;;0.90;;
23115;SDS011;11727;52.134;5.052;2023-01-04T11:56:57;5.18;;;0.55;;
23115;SDS011;11727;52.134;5.052;2023-01-04T11:59:27;5.97;;;0.68;;
23115;SDS011;11727;52.134;5.052;2023-01-04T12:02:36;3.92;;;0.75;;
23115;SDS011;11727;52.134;5.052;2023-01-04T12:04:44;4.80;;;0.73;;
23115;SDS011;11727;52.134;5.052;2023-01-04T12:09:58;5.10;;;1.15;;
23115;SDS011;11727;52.134;5.052;2023-01-04T12:12:27;10.27;;;1.23;;
23115;SDS011;11727;52.134;5.052;2023-01-04T12:14:54;11.98;;;1.00;;
23115;SDS011;11727;52.134;5.052;2023-01-04T12:17:24;11.52;;;1.33;;
23115;SDS011;11727;52.134;5.052;2023-01-04T12:20:12;9.57;;;0.52;;
23115;SDS011;11727;52.134;5.052;2023-01-04T12:22:40;5.75;;;0.55;;
23115;SDS011;11727;52.134;5.052;2023-01-04T12:25:07;4.00;;;0.77;;
23115;SDS011;11727;52.134;5.052;2023-01-04T12:27:48;14.15;;;0.98;;
23115;SDS011;11727;52.134;5.052;2023-01-04T12:36:04;3.80;;;0.63;;
23115;SDS011;11727;52.134;5.052;2023-01-04T12:41:16;6.28;;;0.75;;
23115;SDS011;11727;52.134;5.052;2023-01-04T12:43:45;5.88;;;0.93;;
23115;SDS011;11727;52.134;5.052;2023-01-04T12:54:48;10.55;;;1.27;;
23115;SDS011;11727;52.134;5.052;2023-01-04T13:10:31;3.65;;;0.60;;
23115;SDS011;11727;52.134;5.052;2023-01-04T13:16:00;6.68;;;1.35;;
23115;SDS011;11727;52.134;5.052;2023-01-04T13:21:00;15.68;;;1.17;;
23115;SDS011;11727;52.134;5.052;2023-01-04T13:23:33;7.38;;;0.90;;
23115;SDS011;11727;52.134;5.052;2023-01-04T13:31:52;1.77;;;0.50;;
23115;SDS011;11727;52.134;5.052;2023-01-04T13:40:21;9.35;;;1.67;;
23115;SDS011;11727;52.134;5.052;2023-01-04T13:42:27;7.90;;;1.27;;
23115;SDS011;11727;52.134;5.052;2023-01-04T13:47:50;6.97;;;0.90;;
23115;SDS011;11727;52.134;5.052;2023-01-04T13:50:37;5.18;;;0.77;;
23115;SDS011;11727;52.134;5.052;2023-01-04T13:53:15;14.07;;;1.90;;
23115;SDS011;11727;52.134;5.052;2023-01-04T13:55:45;9.80;;;0.85;;
23115;SDS011;11727;52.134;5.052;2023-01-04T13:58:16;12.60;;;1.15;;
23115;SDS011;11727;52.134;5.052;2023-01-04T14:00:44;4.32;;;0.85;;
23115;SDS011;11727;52.134;5.052;2023-01-04T14:03:20;12.38;;;1.15;;
23115;SDS011;11727;52.134;5.052;2023-01-04T14:05:56;12.32;;;1.20;;
23115;SDS011;11727;52.134;5.052;2023-01-04T14:08:47;11.98;;;1.20;;
23115;SDS011;11727;52.134;5.052;2023-01-04T14:11:28;9.05;;;1.08;;
23115;SDS011;11727;52.134;5.052;2023-01-04T14:17:03;10.63;;;1.55;;
23115;SDS011;11727;52.134;5.052;2023-01-04T14:19:38;4.80;;;1.00;;
23115;SDS011;11727;52.134;5.052;2023-01-04T14:25:42;3.65;;;0.93;;
23115;SDS011;11727;52.134;5.052;2023-01-04T14:30:44;5.13;;;0.95;;
23115;SDS011;11727;52.134;5.052;2023-01-04T14:35:37;5.43;;;0.77;;
23115;SDS011;11727;52.134;5.052;2023-01-04T14:38:10;6.03;;;1.02;;
23115;SDS011;11727;52.134;5.052;2023-01-04T14:40:39;7.80;;;0.73;;
23115;SDS011;11727;52.134;5.052;2023-01-04T14:46:00;3.88;;;0.57;;
23115;SDS011;11727;52.134;5.052;2023-01-04T14:48:27;5.82;;;0.95;;
23115;SDS011;11727;52.134;5.052;2023-01-04T14:50:54;7.57;;;0.85;;
23115;SDS011;11727;52.134;5.052;2023-01-04T14:53:20;7.45;;;1.08;;
23115;SDS011;11727;52.134;5.052;2023-01-04T14:55:46;4.43;;;0.73;;
23115;SDS011;11727;52.134;5.052;2023-01-04T14:58:12;7.82;;;1.27;;
23115;SDS011;11727;52.134;5.052;2023-01-04T15:00:37;6.18;;;1.40;;
23115;SDS011;11727;52.134;5.052;2023-01-04T15:03:03;3.25;;;0.88;;
23115;SDS011;11727;52.134;5.052;2023-01-04T15:05:29;7.68;;;0.73;;
23115;SDS011;11727;52.134;5.052;2023-01-04T15:07:56;8.88;;;1.42;;
23115;SDS011;11727;52.134;5.052;2023-01-04T15:10:23;10.65;;;1.45;;
23115;SDS011;11727;52.134;5.052;2023-01-04T15:12:51;11.18;;;1.10;;
23115;SDS011;11727;52.134;5.052;2023-01-04T15:15:17;10.85;;;1.85;;
23115;SDS011;11727;52.134;5.052;2023-01-04T15:17:43;5.68;;;1.05;;
23115;SDS011;11727;52.134;5.052;2023-01-04T15:20:09;6.40;;;1.65;;
23115;SDS011;11727;52.134;5.052;2023-01-04T15:22:37;10.02;;;1.55;;
23115;SDS011;11727;52.134;5.052;2023-01-04T15:25:04;15.25;;;2.03;;
23115;SDS011;11727;52.134;5.052;2023-01-04T15:27:30;13.65;;;1.92;;
23115;SDS011;11727;52.134;5.052;2023-01-04T15:29:56;17.85;;;2.47;;
23115;SDS011;11727;52.134;5.052;2023-01-04T15:32:21;20.75;;;2.45;;
23115;SDS011;11727;52.134;5.052;2023-01-04T15:34:47;5.22;;;0.98;;
23115;SDS011;11727;52.134;5.052;2023-01-04T15:37:13;9.55;;;1.42;;
23115;SDS011;11727;52.134;5.052;2023-01-04T15:39:39;4.30;;;1.15;;
23115;SDS011;11727;52.134;5.052;2023-01-04T15:42:04;6.75;;;0.90;;
23115;SDS011;11727;52.134;5.052;2023-01-04T15:44:49;11.52;;;1.70;;
23115;SDS011;11727;52.134;5.052;2023-01-04T15:47:14;11.45;;;1.25;;
23115;SDS011;11727;52.134;5.052;2023-01-04T15:49:46;9.55;;;1.38;;
23115;SDS011;11727;52.134;5.052;2023-01-04T15:52:11;5.80;;;1.38;;
23115;SDS011;11727;52.134;5.052;2023-01-04T15:54:37;14.65;;;3.00;;
23115;SDS011;11727;52.134;5.052;2023-01-04T15:57:06;14.02;;;1.67;;
23115;SDS011;11727;52.134;5.052;2023-01-04T15:59:31;10.20;;;2.17;;
23115;SDS011;11727;52.134;5.052;2023-01-04T16:01:57;14.70;;;1.67;;
23115;SDS011;11727;52.134;5.052;2023-01-04T16:04:23;18.33;;;1.80;;
23115;SDS011;11727;52.134;5.052;2023-01-04T16:06:48;6.60;;;1.85;;
23115;SDS011;11727;52.134;5.052;2023-01-04T16:09:14;12.63;;;1.33;;
23115;SDS011;11727;52.134;5.052;2023-01-04T16:11:40;7.95;;;1.23;;
23115;SDS011;11727;52.134;5.052;2023-01-04T16:14:25;13.93;;;1.95;;
23115;SDS011;11727;52.134;5.052;2023-01-04T16:16:51;19.92;;;3.08;;
23115;SDS011;11727;52.134;5.052;2023-01-04T16:19:17;14.02;;;1.52;;
23115;SDS011;11727;52.134;5.052;2023-01-04T16:21:43;8.63;;;1.52;;
23115;SDS011;11727;52.134;5.052;2023-01-04T16:24:09;10.52;;;1.98;;
23115;SDS011;11727;52.134;5.052;2023-01-04T16:26:35;10.85;;;1.30;;
23115;SDS011;11727;52.134;5.052;2023-01-04T16:29:01;9.07;;;1.45;;
23115;SDS011;11727;52.134;5.052;2023-01-04T16:31:31;9.10;;;2.40;;
23115;SDS011;11727;52.134;5.052;2023-01-04T16:33:57;15.73;;;2.55;;
23115;SDS011;11727;52.134;5.052;2023-01-04T16:36:26;10.60;;;1.60;;
23115;SDS011;11727;52.134;5.052;2023-01-04T16:38:51;9.82;;;1.15;;
23115;SDS011;11727;52.134;5.052;2023-01-04T16:41:18;10.63;;;1.38;;
23115;SDS011;11727;52.134;5.052;2023-01-04T16:51:28;10.93;;;1.27;;
23115;SDS011;11727;52.134;5.052;2023-01-04T16:53:57;18.67;;;2.55;;
23115;SDS011;11727;52.134;5.052;2023-01-04T16:56:25;11.48;;;1.67;;
23115;SDS011;11727;52.134;5.052;2023-01-04T16:58:51;17.60;;;1.98;;
23115;SDS011;11727;52.134;5.052;2023-01-04T17:01:18;9.57;;;1.60;;
23115;SDS011;11727;52.134;5.052;2023-01-04T17:03:46;6.28;;;1.02;;
23115;SDS011;11727;52.134;5.052;2023-01-04T17:08:39;10.82;;;1.55;;
23115;SDS011;11727;52.134;5.052;2023-01-04T17:11:06;20.77;;;2.15;;
23115;SDS011;11727;52.134;5.052;2023-01-04T17:13:33;8.02;;;1.33;;
23115;SDS011;11727;52.134;5.052;2023-01-04T17:15:59;14.50;;;2.17;;
23115;SDS011;11727;52.134;5.052;2023-01-04T17:18:26;12.70;;;1.60;;
23115;SDS011;11727;52.134;5.052;2023-01-04T17:20:53;13.57;;;1.88;;
23115;SDS011;11727;52.134;5.052;2023-01-04T17:23:19;17.13;;;2.30;;
23115;SDS011;11727;52.134;5.052;2023-01-04T17:25:46;17.10;;;2.00;;
23115;SDS011;11727;52.134;5.052;2023-01-04T17:28:11;13.52;;;1.67;;
23115;SDS011;11727;52.134;5.052;2023-01-04T17:30:37;14.38;;;1.63;;